Los Angeles, CA (90039)

1:58 PM PST on January 17, 2017 (GMT -0800)
Silver Lake GreyTop | | Change Station

Elev 538 ft 34.10 °N, 118.26 °W | Updated 14 seconds ago

Clear
Clear
68.7 °F
Feels Like 68.7 °F
N
6.0
Wind Variable Wind from NNE
Gusts 7.4 mph

Today
High -- | Low -- °F
--% Chance of Precip.
Yesterday
High -- | Low -- °F
Precip. -- in
Pressure 30.08 in
Visibility 10.0 miles
Clouds Clear
Dew Point 33 °F
Humidity 27%
Rainfall 0.00 in
Snow Depth Not available.
6:57 AM 5:09 PM
Waning Gibbous, 69% visible
METAR KCQT 172147Z AUTO VRB03KT 10SM CLR 20/02 A3008 RMK AO2 SLP186 T02000022
Pressure 30.08 in
Visibility 10.0 miles
Clouds Clear
Dew Point 33 °F
Humidity 27%
Rainfall 0.00 in
Snow Depth Not available.
6:57 AM 5:09 PM
Waning Gibbous, 69% visible
METAR KCQT 172147Z AUTO VRB03KT 10SM CLR 20/02 A3008 RMK AO2 SLP186 T02000022

Get Your Daily Forecast Email!

Thanks for signing up!

Be on the lookout for a verification email in your inbox.

You'll start receiving the daily forecast at 8 AM.

×

10-Day Weather Forecast

Almanac

Astronomy

Jan. 17, 2017 Rise Set
Actual Time
Civil Twilight
Nautical Twilight
Astronomical Twilight
Moon
Length of Visible Light
Length of Day
Tomorrow will be .
, % of the Moon is Illuminated

Today's Extremes

State Highs State Lows

Community

WunderPhotos

Upload Photos

1,962,540 photos uploaded!

WunderBlog® & News

Nearby

Air Quality

  Air Quality AQ Index Pollutant
Not available.

Snow Depth

Station Depth Elevation

Earthquake Activity

City Distance Mag. Time & Date
Minimum magnitude displayed is 2.5.

Coastal Water Temperatures

Place Temperature

Stations

Nearby Weather Stations

Station Location Temp. Windchill Dew Point Humidity Wind Precip. Elev Updated Type
                   

Watches & Warnings

There are currently no watches in effect.